Excellent Pescadores — HORK — position and weather

sailwx.info

Track history (hours):
 
Tides and Currents Weather Stations Pressure Air Temp Water Temp Dewpoint Dewpoint Depression Visibility Wind Speed Wind Dir Waves Ship Positions

Excellent Pescadores

Last reported at 2014-Oct-26 03:30 UTC. Time now 2014-Oct-31 10:43 UTC.
Position N 38°09' W 011°41'.

Length 148 m; draft 8.7 m.

Type: Cargo ship. MMSI: 356291000.

Date/timePositionNaut miles runAvg speedWind from/ knotsBaromVisibWave heightAir tempDewpointWater temp
2014-Oct-26 03:30N 38°09' W 011°41'1411.5
2014-Oct-26 02:19N 38°22' W 011°36'5211.0
2014-Oct-25 21:33N 39°12' W 011°18'  
2014-Oct-22 08:20N 51°01' E 001°28'1114.1
2014-Oct-22 07:34N 51°09' E 001°40'1413.9
2014-Oct-22 06:33N 51°20' E 001°53'1312.9
2014-Oct-22 05:33N 51°32' E 002°02'67 4.7
2014-Oct-21 15:28N 52°04' E 003°37'6 6.3
2014-Oct-21 14:33N 52°04' E 003°47'5 5.0
2014-Oct-21 13:32N 52°04' E 003°55'3 3.3
2014-Oct-21 12:33N 52°02' E 003°60'4 3.8
2014-Oct-21 11:33N 51°59' E 004°03'3 2.6
2014-Oct-21 10:33N 51°57' E 004°05'0 0.0
2014-Oct-21 09:27N 51°57' E 004°05'0 0.0
2014-Oct-21 08:33N 51°57' E 004°05'0 0.0
2014-Oct-21 07:30N 51°57' E 004°05'0 0.0
2014-Oct-21 06:24N 51°57' E 004°05'0 0.0
2014-Oct-21 05:33N 51°57' E 004°05'0 0.0
2014-Oct-21 04:30N 51°57' E 004°05'0 0.0
2014-Oct-21 03:33N 51°57' E 004°05'0 0.0
2014-Oct-21 02:27N 51°57' E 004°05'0 0.0
2014-Oct-21 01:33N 51°57' E 004°05'0 0.0
2014-Oct-21 00:30N 51°57' E 004°05'0 0.0
2014-Oct-20 23:33N 51°57' E 004°05'0 0.0
2014-Oct-20 22:33N 51°57' E 004°05'0 0.0
2014-Oct-20 21:30N 51°57' E 004°05'0 0.0
2014-Oct-20 20:33N 51°57' E 004°05'0 0.0
2014-Oct-20 19:30N 51°57' E 004°05'0 0.0
2014-Oct-20 18:21N 51°57' E 004°05'0 0.0
2014-Oct-20 17:33N 51°57' E 004°05'0 0.0
2014-Oct-20 16:30N 51°57' E 004°05'0 0.0
2014-Oct-20 15:33N 51°57' E 004°05'0 0.0
2014-Oct-20 14:27N 51°57' E 004°05'0 0.0
2014-Oct-20 13:33N 51°57' E 004°05'0 0.0
2014-Oct-20 12:30N 51°57' E 004°05'0 0.0
2014-Oct-20 11:33N 51°57' E 004°05'0 0.0
2014-Oct-20 10:33N 51°57' E 004°05'0 0.0
2014-Oct-20 09:33N 51°57' E 004°05'0 0.0
2014-Oct-20 08:33N 51°57' E 004°05'0 0.0
2014-Oct-20 07:30N 51°57' E 004°05'0 0.0
2014-Oct-20 06:30N 51°57' E 004°05'0 0.0
2014-Oct-20 05:33N 51°57' E 004°05'0 0.0
2014-Oct-20 04:33N 51°57' E 004°05'0 0.0
2014-Oct-20 03:33N 51°57' E 004°05'0 0.0
2014-Oct-20 02:33N 51°57' E 004°05'0 0.0
2014-Oct-20 01:33N 51°57' E 004°05'0 0.0
2014-Oct-20 00:32N 51°57' E 004°05'0 0.0
2014-Oct-19 23:32N 51°57' E 004°05'0 0.0
2014-Oct-19 22:29N 51°57' E 004°05'0 0.0
2014-Oct-19 21:29N 51°57' E 004°05'0 0.0
2014-Oct-19 20:29N 51°57' E 004°05'0 0.0
2014-Oct-19 19:23N 51°57' E 004°05'0 0.0
2014-Oct-19 18:29N 51°57' E 004°05'0 0.0
2014-Oct-19 17:32N 51°57' E 004°05'0 0.0
2014-Oct-19 16:32N 51°57' E 004°05'0 0.0
2014-Oct-19 15:29N 51°57' E 004°05'0 0.0
2014-Oct-19 14:32N 51°57' E 004°05'0 0.0
2014-Oct-19 13:29N 51°57' E 004°05'0 0.0
2014-Oct-19 12:32N 51°57' E 004°05'0 0.0
2014-Oct-19 11:29N 51°57' E 004°05'0 0.0
2014-Oct-19 10:26N 51°57' E 004°05'0 0.0
2014-Oct-19 09:29N 51°57' E 004°05'0 0.0
2014-Oct-19 08:32N 51°57' E 004°05'0 0.0
2014-Oct-19 07:32N 51°57' E 004°05'0 0.0
2014-Oct-19 06:32N 51°57' E 004°05'0 0.0
2014-Oct-19 05:32N 51°57' E 004°05'0 0.0
2014-Oct-19 04:32N 51°57' E 004°05'0 0.0
2014-Oct-19 03:32N 51°57' E 004°05'0 0.0
2014-Oct-19 02:29N 51°57' E 004°05'0 0.0
2014-Oct-19 01:32N 51°57' E 004°05'0 0.0
2014-Oct-19 00:32N 51°57' E 004°05'0 0.0
2014-Oct-18 23:32N 51°57' E 004°05'0 0.0
2014-Oct-18 22:29N 51°57' E 004°05'0 0.0
2014-Oct-18 21:29N 51°57' E 004°05'0 0.0
2014-Oct-18 20:32N 51°57' E 004°05'0 0.0
2014-Oct-18 19:26N 51°57' E 004°05'0 0.0
2014-Oct-18 18:32N 51°57' E 004°05'0 0.0
2014-Oct-18 17:29N 51°57' E 004°05'0 0.0
2014-Oct-18 16:32N 51°57' E 004°05'0 0.0
2014-Oct-18 15:32N 51°57' E 004°05'0 0.0
2014-Oct-18 14:29N 51°57' E 004°05'0 0.0
2014-Oct-18 13:28N 51°57' E 004°05'0 0.0
2014-Oct-18 12:25N 51°57' E 004°05'0 0.0
2014-Oct-18 11:31N 51°57' E 004°05'2 2.1
2014-Oct-18 10:33N 51°59' E 004°04'7 6.7
2014-Oct-18 09:33N 52°00' E 003°54'18 2.5
2014-Oct-18 02:20N 51°53' E 003°27'0 0.0
2014-Oct-18 01:29N 51°53' E 003°27'0 0.0
2014-Oct-18 00:17N 51°53' E 003°27'0 0.0
2014-Oct-17 02:19N 51°53' E 003°27'0 0.0
2014-Oct-16 21:28N 51°53' E 003°27'0 0.0
2014-Oct-16 20:31N 51°53' E 003°27'0 0.0
2014-Oct-16 19:31N 51°53' E 003°27'0 0.0
2014-Oct-16 09:18N 51°53' E 003°27'0 0.0
2014-Oct-16 07:33N 51°53' E 003°27'0 0.0
2014-Oct-16 06:33N 51°53' E 003°27'0 0.0
2014-Oct-16 05:33N 51°53' E 003°27'  
Track history (hours):
 
Tides and Currents Weather Stations Pressure Air Temp Water Temp Dewpoint Dewpoint Depression Visibility Wind Speed Wind Dir Waves Ship Positions

Excellent Pescadores

Last reported at 2014-Oct-26 03:30 UTC. Time now 2014-Oct-31 10:43 UTC.
Position N 38°09' W 011°41'.

Length 148 m; draft 8.7 m.

Type: Cargo ship. MMSI: 356291000.

Date/timePositionNaut miles runAvg speedWind from/ knotsBaromVisibWave heightAir tempDewpointWater temp
2014-Oct-26 03:30N 38°09' W 011°41'1411.5
2014-Oct-26 02:19N 38°22' W 011°36'5211.0
2014-Oct-25 21:33N 39°12' W 011°18'  
2014-Oct-22 08:20N 51°01' E 001°28'1114.1
2014-Oct-22 07:34N 51°09' E 001°40'1413.9
2014-Oct-22 06:33N 51°20' E 001°53'1312.9
2014-Oct-22 05:33N 51°32' E 002°02'67 4.7
2014-Oct-21 15:28N 52°04' E 003°37'6 6.3
2014-Oct-21 14:33N 52°04' E 003°47'5 5.0
2014-Oct-21 13:32N 52°04' E 003°55'3 3.3
2014-Oct-21 12:33N 52°02' E 003°60'4 3.8
2014-Oct-21 11:33N 51°59' E 004°03'3 2.6
2014-Oct-21 10:33N 51°57' E 004°05'0 0.0
2014-Oct-21 09:27N 51°57' E 004°05'0 0.0
2014-Oct-21 08:33N 51°57' E 004°05'0 0.0
2014-Oct-21 07:30N 51°57' E 004°05'0 0.0
2014-Oct-21 06:24N 51°57' E 004°05'0 0.0
2014-Oct-21 05:33N 51°57' E 004°05'0 0.0
2014-Oct-21 04:30N 51°57' E 004°05'0 0.0
2014-Oct-21 03:33N 51°57' E 004°05'0 0.0
2014-Oct-21 02:27N 51°57' E 004°05'0 0.0
2014-Oct-21 01:33N 51°57' E 004°05'0 0.0
2014-Oct-21 00:30N 51°57' E 004°05'0 0.0
2014-Oct-20 23:33N 51°57' E 004°05'0 0.0
2014-Oct-20 22:33N 51°57' E 004°05'0 0.0
2014-Oct-20 21:30N 51°57' E 004°05'0 0.0
2014-Oct-20 20:33N 51°57' E 004°05'0 0.0
2014-Oct-20 19:30N 51°57' E 004°05'0 0.0
2014-Oct-20 18:21N 51°57' E 004°05'0 0.0
2014-Oct-20 17:33N 51°57' E 004°05'0 0.0
2014-Oct-20 16:30N 51°57' E 004°05'0 0.0
2014-Oct-20 15:33N 51°57' E 004°05'0 0.0
2014-Oct-20 14:27N 51°57' E 004°05'0 0.0
2014-Oct-20 13:33N 51°57' E 004°05'0 0.0
2014-Oct-20 12:30N 51°57' E 004°05'0 0.0
2014-Oct-20 11:33N 51°57' E 004°05'0 0.0
2014-Oct-20 10:33N 51°57' E 004°05'0 0.0
2014-Oct-20 09:33N 51°57' E 004°05'0 0.0
2014-Oct-20 08:33N 51°57' E 004°05'0 0.0
2014-Oct-20 07:30N 51°57' E 004°05'0 0.0
2014-Oct-20 06:30N 51°57' E 004°05'0 0.0
2014-Oct-20 05:33N 51°57' E 004°05'0 0.0
2014-Oct-20 04:33N 51°57' E 004°05'0 0.0
2014-Oct-20 03:33N 51°57' E 004°05'0 0.0
2014-Oct-20 02:33N 51°57' E 004°05'0 0.0
2014-Oct-20 01:33N 51°57' E 004°05'0 0.0
2014-Oct-20 00:32N 51°57' E 004°05'0 0.0
2014-Oct-19 23:32N 51°57' E 004°05'0 0.0
2014-Oct-19 22:29N 51°57' E 004°05'0 0.0
2014-Oct-19 21:29N 51°57' E 004°05'0 0.0
2014-Oct-19 20:29N 51°57' E 004°05'0 0.0
2014-Oct-19 19:23N 51°57' E 004°05'0 0.0
2014-Oct-19 18:29N 51°57' E 004°05'0 0.0
2014-Oct-19 17:32N 51°57' E 004°05'0 0.0
2014-Oct-19 16:32N 51°57' E 004°05'0 0.0
2014-Oct-19 15:29N 51°57' E 004°05'0 0.0
2014-Oct-19 14:32N 51°57' E 004°05'0 0.0
2014-Oct-19 13:29N 51°57' E 004°05'0 0.0
2014-Oct-19 12:32N 51°57' E 004°05'0 0.0
2014-Oct-19 11:29N 51°57' E 004°05'0 0.0
2014-Oct-19 10:26N 51°57' E 004°05'0 0.0
2014-Oct-19 09:29N 51°57' E 004°05'0 0.0
2014-Oct-19 08:32N 51°57' E 004°05'0 0.0
2014-Oct-19 07:32N 51°57' E 004°05'0 0.0
2014-Oct-19 06:32N 51°57' E 004°05'0 0.0
2014-Oct-19 05:32N 51°57' E 004°05'0 0.0
2014-Oct-19 04:32N 51°57' E 004°05'0 0.0
2014-Oct-19 03:32N 51°57' E 004°05'0 0.0
2014-Oct-19 02:29N 51°57' E 004°05'0 0.0
2014-Oct-19 01:32N 51°57' E 004°05'0 0.0
2014-Oct-19 00:32N 51°57' E 004°05'0 0.0
2014-Oct-18 23:32N 51°57' E 004°05'0 0.0
2014-Oct-18 22:29N 51°57' E 004°05'0 0.0
2014-Oct-18 21:29N 51°57' E 004°05'0 0.0
2014-Oct-18 20:32N 51°57' E 004°05'0 0.0
2014-Oct-18 19:26N 51°57' E 004°05'0 0.0
2014-Oct-18 18:32N 51°57' E 004°05'0 0.0
2014-Oct-18 17:29N 51°57' E 004°05'0 0.0
2014-Oct-18 16:32N 51°57' E 004°05'0 0.0
2014-Oct-18 15:32N 51°57' E 004°05'0 0.0
2014-Oct-18 14:29N 51°57' E 004°05'0 0.0
2014-Oct-18 13:28N 51°57' E 004°05'0 0.0
2014-Oct-18 12:25N 51°57' E 004°05'0 0.0
2014-Oct-18 11:31N 51°57' E 004°05'2 2.1
2014-Oct-18 10:33N 51°59' E 004°04'7 6.7
2014-Oct-18 09:33N 52°00' E 003°54'18 2.5
2014-Oct-18 02:20N 51°53' E 003°27'0 0.0
2014-Oct-18 01:29N 51°53' E 003°27'0 0.0
2014-Oct-18 00:17N 51°53' E 003°27'0 0.0
2014-Oct-17 02:19N 51°53' E 003°27'0 0.0
2014-Oct-16 21:28N 51°53' E 003°27'0 0.0
2014-Oct-16 20:31N 51°53' E 003°27'0 0.0
2014-Oct-16 19:31N 51°53' E 003°27'0 0.0
2014-Oct-16 09:18N 51°53' E 003°27'0 0.0
2014-Oct-16 07:33N 51°53' E 003°27'0 0.0
2014-Oct-16 06:33N 51°53' E 003°27'0 0.0
2014-Oct-16 05:33N 51°53' E 003°27'  

Dump ship's entire track history